Time;durP1;ratioP1;P1;durP2;ratioP2;P2;SDS_P1;SDS_P2;PMS_P1;PMS_P2;Temp;Humidity;BMP_temperature;BMP_pressure;BME280_temperature;BME280_humidity;BME280_pressure;Samples;Min_cycle;Max_cycle;Signal;HPM_P1;HPM_P2
2022/07/13 00:00:12;;;;;;;5.90;5.40;;;;;;;;;;5013069;28;20182;-70
2022/07/13 00:02:38;;;;;;;7.82;6.68;;;;;;;;;;5018274;28;20642;-70
2022/07/13 00:05:06;;;;;;;7.97;6.75;;;;;;;;;;5025755;28;20206;-71
2022/07/13 00:07:33;;;;;;;8.65;6.95;;;;;;;;;;5011086;28;20602;-69
2022/07/13 00:09:58;;;;;;;8.55;7.65;;;;;;;;;;5031974;28;20181;-70
2022/07/13 00:12:24;;;;;;;9.77;7.72;;;;;;;;;;5022186;28;20240;-70
2022/07/13 00:14:49;;;;;;;8.60;7.22;;;;;;;;;;5023141;28;20186;-69
2022/07/13 00:17:15;;;;;;;9.40;8.45;;;;;;;;;;5018069;28;20610;-70
2022/07/13 00:19:40;;;;;;;9.57;8.55;;;;;;;;;;5023640;28;20178;-69
2022/07/13 00:22:05;;;;;;;9.30;8.40;;;;;;;;;;5026066;28;20194;-70
2022/07/13 00:24:31;;;;;;;11.18;8.98;;;;;;;;;;5016027;28;20194;-70
2022/07/13 00:26:56;;;;;;;8.85;7.97;;;;;;;;;;5016950;28;20233;-70
2022/07/13 00:29:21;;;;;;;10.65;8.98;;;;;;;;;;5018843;28;20265;-70
2022/07/13 00:31:47;;;;;;;9.68;8.68;;;;;;;;;;5025724;28;20201;-69
2022/07/13 00:34:13;;;;;;;11.20;8.63;;;;;;;;;;5024725;28;20192;-69
2022/07/13 00:36:38;;;;;;;9.65;8.65;;;;;;;;;;5017112;28;20186;-67
2022/07/13 00:39:03;;;;;;;10.45;8.07;;;;;;;;;;5024162;28;20186;-67
2022/07/13 00:41:29;;;;;;;10.80;8.75;;;;;;;;;;5008396;28;20549;-68
2022/07/13 00:44:08;;;;;;;11.38;9.07;;;;;;;;;;5018497;28;20205;-68
2022/07/13 00:46:35;;;;;;;12.10;8.82;;;;;;;;;;5029500;28;20265;-69
2022/07/13 00:49:02;;;;;;;10.27;9.18;;;;;;;;;;5026540;28;20610;-68
2022/07/13 00:51:28;;;;;;;8.73;7.85;;;;;;;;;;5018197;28;20174;-67
2022/07/13 00:53:54;;;;;;;12.07;8.00;;;;;;;;;;5026532;28;20181;-68
2022/07/13 00:56:20;;;;;;;9.93;8.90;;;;;;;;;;5029223;28;20186;-66
2022/07/13 00:58:46;;;;;;;10.27;9.25;;;;;;;;;;5027815;28;20182;-66
2022/07/13 01:01:12;;;;;;;10.20;9.20;;;;;;;;;;5032373;28;20197;-66
2022/07/13 01:03:37;;;;;;;10.85;9.57;;;;;;;;;;5029212;28;20189;-67
2022/07/13 01:06:04;;;;;;;11.98;9.60;;;;;;;;;;5020102;28;20199;-66
2022/07/13 01:08:30;;;;;;;10.98;9.05;;;;;;;;;;5019947;28;20217;-65
2022/07/13 01:10:57;;;;;;;10.77;9.32;;;;;;;;;;5039074;28;20378;-66
2022/07/13 01:13:22;;;;;;;13.82;10.02;;;;;;;;;;5041146;28;20677;-66
2022/07/13 01:15:48;;;;;;;11.10;10.00;;;;;;;;;;5024646;28;20209;-67
2022/07/13 01:18:14;;;;;;;10.95;9.80;;;;;;;;;;5032690;28;20178;-66
2022/07/13 01:20:41;;;;;;;11.35;10.07;;;;;;;;;;5030416;28;20190;-66
2022/07/13 01:23:11;;;;;;;10.38;9.00;;;;;;;;;;5039649;28;20179;-66
2022/07/13 01:25:37;;;;;;;10.57;9.57;;;;;;;;;;5030398;28;20555;-66
2022/07/13 01:28:03;;;;;;;12.27;9.25;;;;;;;;;;5039781;28;20677;-66
2022/07/13 01:30:28;;;;;;;11.43;8.35;;;;;;;;;;5030484;28;20230;-65
2022/07/13 01:32:54;;;;;;;9.93;8.93;;;;;;;;;;5018155;28;20712;-66
2022/07/13 01:35:22;;;;;;;10.75;8.88;;;;;;;;;;5030140;28;20189;-67
2022/07/13 01:37:47;;;;;;;11.05;9.10;;;;;;;;;;5019181;28;20269;-66
2022/07/13 01:40:14;;;;;;;9.95;8.65;;;;;;;;;;5030838;28;20182;-65
2022/07/13 01:42:45;;;;;;;9.45;8.52;;;;;;;;;;5029945;28;20181;-67
2022/07/13 01:45:11;;;;;;;10.90;8.60;;;;;;;;;;5032998;28;20201;-67
2022/07/13 01:47:45;;;;;;;9.65;8.43;;;;;;;;;;5024814;28;20289;-65
2022/07/13 01:50:12;;;;;;;9.55;7.70;;;;;;;;;;5028358;28;20186;-66
2022/07/13 01:52:37;;;;;;;9.48;8.43;;;;;;;;;;5039200;28;20411;-66
2022/07/13 01:55:04;;;;;;;11.32;8.90;;;;;;;;;;5038195;28;20594;-65
2022/07/13 01:57:30;;;;;;;9.07;8.15;;;;;;;;;;5034470;28;20196;-66
2022/07/13 02:00:14;;;;;;;10.77;8.63;;;;;;;;;;5030326;28;20190;-67
2022/07/13 02:02:41;;;;;;;8.70;7.80;;;;;;;;;;5015376;28;20185;-67
2022/07/13 02:05:07;;;;;;;8.15;7.20;;;;;;;;;;5029955;28;20197;-66
2022/07/13 02:07:32;;;;;;;10.50;7.55;;;;;;;;;;5030213;28;20209;-66
2022/07/13 02:09:57;;;;;;;11.40;8.50;;;;;;;;;;5027678;28;20352;-64
2022/07/13 02:12:23;;;;;;;10.23;8.55;;;;;;;;;;5019978;28;20305;-67
2022/07/13 02:14:48;;;;;;;10.45;8.50;;;;;;;;;;5019527;28;21482;-67
2022/07/13 02:17:14;;;;;;;11.18;8.70;;;;;;;;;;5030245;28;20234;-66
2022/07/13 02:19:39;;;;;;;9.15;7.72;;;;;;;;;;5027918;28;20178;-65
2022/07/13 02:22:05;;;;;;;7.55;6.85;;;;;;;;;;5029013;28;20185;-65
2022/07/13 02:24:30;;;;;;;8.77;7.80;;;;;;;;;;5033632;28;20185;-66
2022/07/13 02:26:55;;;;;;;9.32;8.13;;;;;;;;;;5029159;28;20181;-66
2022/07/13 02:29:21;;;;;;;10.30;8.10;;;;;;;;;;5027226;28;20231;-66
2022/07/13 02:31:46;;;;;;;9.45;8.40;;;;;;;;;;5036250;28;20344;-66
2022/07/13 02:34:11;;;;;;;11.15;8.70;;;;;;;;;;5038000;28;20587;-66
2022/07/13 02:36:37;;;;;;;11.60;8.38;;;;;;;;;;5038666;28;20190;-66
2022/07/13 02:39:03;;;;;;;9.15;8.18;;;;;;;;;;5024106;28;20178;-67
2022/07/13 02:41:28;;;;;;;9.27;8.27;;;;;;;;;;5031573;28;20220;-67
2022/07/13 02:43:54;;;;;;;11.32;7.97;;;;;;;;;;5020178;28;20681;-67
2022/07/13 02:46:19;;;;;;;8.95;7.20;;;;;;;;;;5017805;28;20559;-68
2022/07/13 02:48:44;;;;;;;8.75;7.88;;;;;;;;;;5028581;28;20198;-68
2022/07/13 02:51:10;;;;;;;10.05;7.55;;;;;;;;;;5020338;28;20232;-66
2022/07/13 02:53:35;;;;;;;8.50;7.60;;;;;;;;;;5022050;28;20226;-66
2022/07/13 02:56:00;;;;;;;8.20;7.13;;;;;;;;;;5022463;28;20269;-67
2022/07/13 02:58:27;;;;;;;11.60;7.30;;;;;;;;;;5034411;28;20183;-66
2022/07/13 03:00:53;;;;;;;9.93;7.65;;;;;;;;;;5039616;28;20217;-66
2022/07/13 03:03:18;;;;;;;8.75;7.80;;;;;;;;;;5024029;28;20261;-67
2022/07/13 03:05:43;;;;;;;10.75;7.15;;;;;;;;;;5026505;28;20248;-67
2022/07/13 03:08:09;;;;;;;12.95;7.72;;;;;;;;;;5031169;28;20296;-68
2022/07/13 03:10:34;;;;;;;10.02;7.70;;;;;;;;;;5027225;28;20190;-67
2022/07/13 03:13:00;;;;;;;10.35;7.13;;;;;;;;;;5019479;28;20241;-67
2022/07/13 03:15:25;;;;;;;8.73;7.20;;;;;;;;;;5027211;28;20276;-67
2022/07/13 03:17:50;;;;;;;8.43;6.65;;;;;;;;;;5022772;28;20232;-67
2022/07/13 03:20:16;;;;;;;8.57;7.30;;;;;;;;;;5032059;28;20644;-67
2022/07/13 03:22:41;;;;;;;7.97;6.93;;;;;;;;;;5019172;28;20665;-67
2022/07/13 03:25:07;;;;;;;8.88;6.88;;;;;;;;;;5017364;28;20182;-67
2022/07/13 03:27:33;;;;;;;8.35;6.13;;;;;;;;;;5025775;28;20233;-67
2022/07/13 03:29:58;;;;;;;9.00;5.88;;;;;;;;;;5035168;28;20263;-67
2022/07/13 03:32:23;;;;;;;8.80;6.57;;;;;;;;;;5032125;28;20358;-67
2022/07/13 03:34:49;;;;;;;7.30;5.93;;;;;;;;;;5023014;28;20186;-67
2022/07/13 03:37:14;;;;;;;7.47;5.70;;;;;;;;;;5031061;28;20189;-67
2022/07/13 03:39:40;;;;;;;7.28;5.53;;;;;;;;;;5022556;28;20170;-66
2022/07/13 03:42:05;;;;;;;7.40;4.90;;;;;;;;;;5021026;28;20229;-66
2022/07/13 03:44:31;;;;;;;5.47;4.80;;;;;;;;;;5026970;28;20689;-67
2022/07/13 03:46:57;;;;;;;6.28;4.85;;;;;;;;;;5021370;28;20571;-67
2022/07/13 03:49:22;;;;;;;6.57;5.05;;;;;;;;;;5024335;28;20193;-67
2022/07/13 03:51:48;;;;;;;5.95;4.78;;;;;;;;;;5026486;28;21618;-67
2022/07/13 03:54:14;;;;;;;6.13;4.18;;;;;;;;;;5017017;28;20190;-67
2022/07/13 03:56:39;;;;;;;8.60;4.38;;;;;;;;;;5020155;28;20257;-67
2022/07/13 03:59:05;;;;;;;8.30;4.18;;;;;;;;;;5026861;28;20861;-67
2022/07/13 04:01:31;;;;;;;5.07;4.57;;;;;;;;;;5027267;28;20240;-67
2022/07/13 04:03:58;;;;;;;4.63;3.97;;;;;;;;;;5022648;28;20278;-68
2022/07/13 04:06:24;;;;;;;7.47;4.07;;;;;;;;;;5012518;28;20290;-68
2022/07/13 04:08:49;;;;;;;4.70;4.20;;;;;;;;;;5022269;28;20289;-68
2022/07/13 04:11:14;;;;;;;4.65;3.97;;;;;;;;;;5021313;28;20182;-68
2022/07/13 04:13:40;;;;;;;4.82;4.18;;;;;;;;;;5016488;28;20189;-67
2022/07/13 04:16:05;;;;;;;5.68;4.72;;;;;;;;;;5024927;28;20262;-67
2022/07/13 04:18:32;;;;;;;4.25;3.83;;;;;;;;;;5024487;28;20575;-67
2022/07/13 04:20:58;;;;;;;5.70;4.30;;;;;;;;;;5012473;28;20181;-67
2022/07/13 04:23:23;;;;;;;5.18;4.68;;;;;;;;;;5020732;28;20568;-67
2022/07/13 04:25:48;;;;;;;5.15;4.07;;;;;;;;;;5017825;28;20531;-67
2022/07/13 04:28:14;;;;;;;5.82;3.95;;;;;;;;;;5027417;28;20205;-66
2022/07/13 04:30:39;;;;;;;4.25;3.85;;;;;;;;;;5026202;28;20224;-66
2022/07/13 04:33:04;;;;;;;5.95;3.30;;;;;;;;;;5039777;28;20318;-67
2022/07/13 04:35:30;;;;;;;3.28;2.97;;;;;;;;;;5041999;28;20184;-66
2022/07/13 04:37:55;;;;;;;3.70;3.05;;;;;;;;;;5041279;28;20653;-65
2022/07/13 04:40:21;;;;;;;3.53;2.50;;;;;;;;;;5039745;28;20260;-66
2022/07/13 04:42:46;;;;;;;3.65;2.80;;;;;;;;;;5035701;28;20617;-66
2022/07/13 04:45:11;;;;;;;4.38;3.10;;;;;;;;;;5039301;28;20194;-66
2022/07/13 04:47:37;;;;;;;5.82;2.97;;;;;;;;;;5036358;28;20201;-66
2022/07/13 04:50:03;;;;;;;3.95;2.80;;;;;;;;;;5032502;28;20212;-66
2022/07/13 04:52:28;;;;;;;4.05;2.60;;;;;;;;;;5025040;28;20834;-66
2022/07/13 04:54:53;;;;;;;5.95;2.90;;;;;;;;;;5035776;28;20188;-66
2022/07/13 04:57:19;;;;;;;2.80;2.50;;;;;;;;;;5042347;28;20223;-65
2022/07/13 04:59:44;;;;;;;3.53;2.60;;;;;;;;;;5039135;28;20193;-66
2022/07/13 05:02:09;;;;;;;3.92;2.38;;;;;;;;;;5036590;28;20186;-66
2022/07/13 05:04:35;;;;;;;2.60;2.40;;;;;;;;;;5038638;28;20181;-67
2022/07/13 05:07:00;;;;;;;2.53;2.33;;;;;;;;;;5043066;28;20269;-66
2022/07/13 05:09:26;;;;;;;2.72;2.28;;;;;;;;;;5029138;28;20244;-66
2022/07/13 05:11:52;;;;;;;3.00;2.33;;;;;;;;;;5027806;28;20627;-66
2022/07/13 05:14:17;;;;;;;2.28;2.05;;;;;;;;;;5039520;28;20604;-66
2022/07/13 05:16:43;;;;;;;3.65;2.47;;;;;;;;;;5036716;28;20262;-66
2022/07/13 05:19:08;;;;;;;2.97;2.40;;;;;;;;;;5040999;28;20182;-66
2022/07/13 05:21:33;;;;;;;5.07;2.30;;;;;;;;;;5040547;28;20641;-66
2022/07/13 05:23:59;;;;;;;3.20;2.80;;;;;;;;;;5039992;28;20657;-66
2022/07/13 05:26:24;;;;;;;5.40;2.83;;;;;;;;;;5036229;28;20178;-66
2022/07/13 05:28:49;;;;;;;4.93;3.42;;;;;;;;;;5034702;28;20221;-68
2022/07/13 05:31:19;;;;;;;3.50;3.00;;;;;;;;;;4491951;28;10001708;-66
2022/07/13 05:33:45;;;;;;;6.47;3.50;;;;;;;;;;5019539;28;20209;-66
2022/07/13 05:36:10;;;;;;;5.10;3.15;;;;;;;;;;5030988;28;20186;-66
2022/07/13 05:38:36;;;;;;;6.32;3.75;;;;;;;;;;5038487;28;20256;-67
2022/07/13 05:41:02;;;;;;;6.78;3.67;;;;;;;;;;5031477;28;20225;-66
2022/07/13 05:43:27;;;;;;;9.45;3.78;;;;;;;;;;5014009;28;20217;-66
2022/07/13 05:45:53;;;;;;;4.95;3.72;;;;;;;;;;5024236;28;20220;-67
2022/07/13 05:48:18;;;;;;;6.63;3.70;;;;;;;;;;5013535;28;20639;-66
2022/07/13 05:50:44;;;;;;;7.05;3.95;;;;;;;;;;5031710;28;20274;-65
2022/07/13 05:53:09;;;;;;;6.97;4.88;;;;;;;;;;5034184;28;20291;-66
2022/07/13 05:55:35;;;;;;;5.50;4.40;;;;;;;;;;5023184;28;20716;-66
2022/07/13 05:58:00;;;;;;;7.90;4.03;;;;;;;;;;5018387;28;20261;-65
2022/07/13 06:00:25;;;;;;;9.15;4.60;;;;;;;;;;5027724;28;20210;-66
2022/07/13 06:02:51;;;;;;;8.88;4.53;;;;;;;;;;5016838;28;20617;-66
2022/07/13 06:05:16;;;;;;;8.88;4.75;;;;;;;;;;5019995;28;20198;-66
2022/07/13 06:07:41;;;;;;;7.07;5.20;;;;;;;;;;5026486;28;20205;-66
2022/07/13 06:10:07;;;;;;;7.75;4.35;;;;;;;;;;5039869;28;20182;-66
2022/07/13 06:12:33;;;;;;;7.13;4.70;;;;;;;;;;5034458;28;20190;-67
2022/07/13 06:14:58;;;;;;;7.28;4.55;;;;;;;;;;5045381;28;20182;-65
2022/07/13 06:17:24;;;;;;;6.15;4.90;;;;;;;;;;5044002;28;20181;-65
2022/07/13 06:19:49;;;;;;;6.80;4.45;;;;;;;;;;5041687;28;20652;-67
2022/07/13 06:22:15;;;;;;;6.10;4.90;;;;;;;;;;5028084;28;20195;-66
2022/07/13 06:24:42;;;;;;;8.40;5.63;;;;;;;;;;5039122;28;20225;-66
2022/07/13 06:27:08;;;;;;;9.93;5.05;;;;;;;;;;5037286;28;20206;-67
2022/07/13 06:29:33;;;;;;;8.50;5.13;;;;;;;;;;5005223;28;1041206;-67
2022/07/13 06:31:59;;;;;;;5.55;4.90;;;;;;;;;;5037807;28;20220;-68
2022/07/13 06:34:25;;;;;;;7.60;4.88;;;;;;;;;;5031148;28;20295;-67
2022/07/13 06:36:50;;;;;;;8.82;5.30;;;;;;;;;;5031322;28;20296;-67
2022/07/13 06:39:15;;;;;;;5.75;4.78;;;;;;;;;;5035057;28;20697;-67
2022/07/13 06:41:41;;;;;;;7.25;4.88;;;;;;;;;;5033957;28;20264;-67
2022/07/13 06:44:06;;;;;;;10.38;5.47;;;;;;;;;;5036033;28;20173;-67
2022/07/13 06:46:32;;;;;;;6.68;4.45;;;;;;;;;;5038630;28;20194;-66
2022/07/13 06:48:57;;;;;;;8.65;5.40;;;;;;;;;;5042954;28;20209;-67
2022/07/13 06:51:23;;;;;;;7.30;5.30;;;;;;;;;;5035787;28;20197;-68
2022/07/13 06:53:48;;;;;;;7.43;4.63;;;;;;;;;;5034142;28;20542;-67
2022/07/13 06:56:14;;;;;;;7.78;4.90;;;;;;;;;;5039833;28;20174;-67
2022/07/13 06:58:39;;;;;;;12.02;5.13;;;;;;;;;;5042090;28;20180;-68
2022/07/13 07:01:05;;;;;;;8.45;5.00;;;;;;;;;;5038931;28;20197;-68
2022/07/13 07:03:30;;;;;;;10.50;4.80;;;;;;;;;;5042330;28;20178;-67
2022/07/13 07:05:56;;;;;;;6.72;4.70;;;;;;;;;;5033105;28;20221;-67
2022/07/13 07:08:22;;;;;;;9.63;3.97;;;;;;;;;;5027217;28;20215;-67
2022/07/13 07:10:47;;;;;;;5.72;4.28;;;;;;;;;;5030917;28;20272;-68
2022/07/13 07:13:13;;;;;;;8.30;4.75;;;;;;;;;;5035851;28;20287;-68
2022/07/13 07:15:39;;;;;;;10.35;5.05;;;;;;;;;;5040300;28;20201;-67
2022/07/13 07:18:04;;;;;;;6.97;4.70;;;;;;;;;;5040604;28;20181;-68
2022/07/13 07:20:30;;;;;;;8.93;4.53;;;;;;;;;;5039712;28;20178;-66
2022/07/13 07:22:55;;;;;;;11.52;4.82;;;;;;;;;;5044294;28;20270;-67
2022/07/13 07:25:21;;;;;;;5.80;4.35;;;;;;;;;;5042730;28;20583;-66
2022/07/13 07:27:47;;;;;;;6.53;4.57;;;;;;;;;;5038572;28;20239;-69
2022/07/13 07:30:13;;;;;;;6.38;4.10;;;;;;;;;;5032577;28;20233;-67
2022/07/13 07:32:39;;;;;;;8.02;4.63;;;;;;;;;;5029765;28;20252;-66
2022/07/13 07:35:06;;;;;;;9.30;4.30;;;;;;;;;;4330380;28;10000512;-65
2022/07/13 07:37:32;;;;;;;8.05;4.68;;;;;;;;;;5016540;28;20275;-67
2022/07/13 07:39:57;;;;;;;9.48;4.88;;;;;;;;;;5019872;28;20186;-66
2022/07/13 07:42:22;;;;;;;7.88;4.82;;;;;;;;;;5029758;28;20255;-67
2022/07/13 07:44:48;;;;;;;6.82;4.78;;;;;;;;;;5038066;28;20181;-66
2022/07/13 07:47:15;;;;;;;8.45;4.70;;;;;;;;;;5025371;28;20205;-69
2022/07/13 07:49:40;;;;;;;7.28;4.82;;;;;;;;;;5026597;28;20269;-70
2022/07/13 07:52:06;;;;;;;6.45;4.80;;;;;;;;;;5024141;28;20268;-69
2022/07/13 07:54:32;;;;;;;8.65;4.53;;;;;;;;;;5037118;28;20181;-69
2022/07/13 07:56:57;;;;;;;6.93;4.93;;;;;;;;;;5016345;28;20213;-68
2022/07/13 07:59:22;;;;;;;9.60;4.47;;;;;;;;;;5037887;28;20179;-67
2022/07/13 08:01:48;;;;;;;5.65;4.15;;;;;;;;;;5018342;28;20198;-68
2022/07/13 08:04:13;;;;;;;6.60;3.95;;;;;;;;;;5029386;28;20181;-68
2022/07/13 08:06:38;;;;;;;6.20;3.55;;;;;;;;;;5039006;28;20287;-69
2022/07/13 08:09:04;;;;;;;7.53;4.32;;;;;;;;;;5035191;28;20407;-69
2022/07/13 08:11:30;;;;;;;6.75;3.72;;;;;;;;;;5037006;28;20617;-72
2022/07/13 08:13:55;;;;;;;8.13;3.63;;;;;;;;;;5034555;28;20198;-70
2022/07/13 08:16:21;;;;;;;6.03;3.20;;;;;;;;;;5036164;28;20185;-69
2022/07/13 08:18:46;;;;;;;3.95;2.95;;;;;;;;;;5039654;28;20204;-68
2022/07/13 08:21:12;;;;;;;6.57;3.30;;;;;;;;;;5037722;28;20212;-70
2022/07/13 08:23:54;;;;;;;4.47;3.45;;;;;;;;;;5035831;28;20564;-68
2022/07/13 08:26:20;;;;;;;4.57;3.75;;;;;;;;;;5034228;28;20200;-70
2022/07/13 08:28:47;;;;;;;5.35;3.72;;;;;;;;;;5026570;28;20210;-74
2022/07/13 08:31:13;;;;;;;9.55;4.30;;;;;;;;;;5022344;28;20210;-70
2022/07/13 08:39:07;;;;;;;6.60;4.60;;;;;;;;;;5033712;28;20942;-68
2022/07/13 08:41:33;;;;;;;6.90;4.53;;;;;;;;;;5030391;28;20185;-66
2022/07/13 08:44:00;;;;;;;5.97;4.90;;;;;;;;;;5035569;28;20193;-68
2022/07/13 08:46:26;;;;;;;5.43;4.72;;;;;;;;;;5031806;28;20640;-68
2022/07/13 08:48:55;;;;;;;10.23;5.30;;;;;;;;;;5032953;28;20228;-68
2022/07/13 08:51:21;;;;;;;8.15;5.03;;;;;;;;;;5038935;28;20185;-68
2022/07/13 08:53:51;;;;;;;5.65;4.30;;;;;;;;;;5034583;28;20536;-68
2022/07/13 08:56:16;;;;;;;7.82;5.13;;;;;;;;;;5021191;28;20178;-69
2022/07/13 08:58:42;;;;;;;7.30;4.60;;;;;;;;;;5033743;28;20179;-68
2022/07/13 09:01:08;;;;;;;6.93;5.18;;;;;;;;;;5028143;28;20177;-69
2022/07/13 09:03:34;;;;;;;7.55;4.97;;;;;;;;;;5035287;28;20695;-68
2022/07/13 09:06:00;;;;;;;5.70;4.00;;;;;;;;;;5026723;28;20211;-70
2022/07/13 09:08:25;;;;;;;11.70;4.47;;;;;;;;;;5023465;28;20623;-69
2022/07/13 09:10:58;;;;;;;8.30;4.18;;;;;;;;;;5029811;28;20277;-69
2022/07/13 09:13:33;;;;;;;7.38;4.30;;;;;;;;;;5034921;28;20707;-69
2022/07/13 09:16:21;;;;;;;7.10;5.80;;;;;;;;;;5037269;28;20707;-68
2022/07/13 09:18:53;;;;;;;10.57;5.30;;;;;;;;;;5043325;28;20494;-69
2022/07/13 09:21:20;;;;;;;9.75;5.18;;;;;;;;;;5039303;28;20210;-67
2022/07/13 09:23:53;;;;;;;6.82;4.20;;;;;;;;;;5035925;28;20236;-66
2022/07/13 09:26:19;;;;;;;7.18;4.45;;;;;;;;;;5035431;28;20210;-68
2022/07/13 09:28:45;;;;;;;5.97;4.38;;;;;;;;;;5045241;28;20294;-67
2022/07/13 09:31:12;;;;;;;6.65;3.88;;;;;;;;;;5039014;28;20533;-67
2022/07/13 09:33:40;;;;;;;4.70;4.05;;;;;;;;;;5034100;28;20258;-67
2022/07/13 09:36:09;;;;;;;7.20;4.22;;;;;;;;;;5035831;28;20186;-66
2022/07/13 09:38:36;;;;;;;8.07;4.07;;;;;;;;;;5038183;28;20196;-67
2022/07/13 09:41:14;;;;;;;7.22;4.22;;;;;;;;;;5041976;28;20179;-68
2022/07/13 09:47:06;;;;;;;5.68;3.95;;;;;;;;;;5039434;28;20208;-68
2022/07/13 09:49:41;;;;;;;6.78;3.75;;;;;;;;;;5045785;28;20178;-66
2022/07/13 09:52:16;;;;;;;5.93;4.07;;;;;;;;;;5035965;28;20188;-66
2022/07/13 09:54:43;;;;;;;6.60;3.58;;;;;;;;;;5045444;28;20591;-67
2022/07/13 09:57:11;;;;;;;8.38;3.90;;;;;;;;;;5041374;28;20178;-68
2022/07/13 09:59:39;;;;;;;6.35;3.50;;;;;;;;;;5046592;28;20224;-70
2022/07/13 10:02:05;;;;;;;6.45;3.15;;;;;;;;;;5038964;28;20644;-66
2022/07/13 10:04:35;;;;;;;7.20;3.33;;;;;;;;;;5042684;28;20239;-66
2022/07/13 10:07:01;;;;;;;4.07;2.88;;;;;;;;;;5043452;28;20189;-65
2022/07/13 10:09:30;;;;;;;5.78;3.67;;;;;;;;;;5041396;28;20206;-68
2022/07/13 10:12:00;;;;;;;3.20;2.83;;;;;;;;;;5035240;28;20182;-67
2022/07/13 10:14:28;;;;;;;3.35;3.05;;;;;;;;;;5030278;28;20177;-68
2022/07/13 10:17:01;;;;;;;5.40;3.22;;;;;;;;;;5038033;28;20185;-72
2022/07/13 10:19:28;;;;;;;4.18;3.00;;;;;;;;;;5040501;28;20232;-67
2022/07/13 10:22:04;;;;;;;6.15;2.80;;;;;;;;;;5041147;28;20182;-67
2022/07/13 10:24:29;;;;;;;5.10;2.70;;;;;;;;;;5041214;28;20590;-70
2022/07/13 10:27:20;;;;;;;4.10;3.00;;;;;;;;;;5032865;28;20186;-68
2022/07/13 10:29:50;;;;;;;5.15;2.72;;;;;;;;;;5036177;28;20226;-71
2022/07/13 10:32:26;;;;;;;8.10;2.90;;;;;;;;;;5017764;28;20207;-68
2022/07/13 10:34:57;;;;;;;6.38;2.97;;;;;;;;;;5035404;28;20280;-66
2022/07/13 10:37:23;;;;;;;7.03;2.83;;;;;;;;;;5025959;28;20621;-68
2022/07/13 10:40:11;;;;;;;5.90;3.00;;;;;;;;;;5036813;28;20193;-70
2022/07/13 10:43:04;;;;;;;4.40;2.55;;;;;;;;;;5038672;28;20223;-66
2022/07/13 10:45:32;;;;;;;3.58;2.55;;;;;;;;;;5045864;28;20208;-67
2022/07/13 10:47:58;;;;;;;2.85;2.60;;;;;;;;;;5029076;28;20725;-67
2022/07/13 10:50:26;;;;;;;4.63;2.70;;;;;;;;;;5047511;28;20579;-70
2022/07/13 10:52:52;;;;;;;5.32;2.90;;;;;;;;;;5044412;28;20197;-70
2022/07/13 10:55:23;;;;;;;6.97;3.25;;;;;;;;;;5041671;28;20182;-67
2022/07/13 10:57:49;;;;;;;6.28;3.67;;;;;;;;;;5041849;28;20597;-68
2022/07/13 11:00:19;;;;;;;3.88;3.15;;;;;;;;;;5044179;28;20197;-69
2022/07/13 11:02:54;;;;;;;5.18;3.60;;;;;;;;;;5020321;28;20190;-70
2022/07/13 11:05:23;;;;;;;5.43;4.00;;;;;;;;;;5030422;28;20641;-69
2022/07/13 11:07:49;;;;;;;5.15;4.05;;;;;;;;;;5032568;28;20213;-67
2022/07/13 11:10:30;;;;;;;9.63;3.83;;;;;;;;;;5028696;28;20280;-66
2022/07/13 11:13:08;;;;;;;5.15;3.70;;;;;;;;;;5010759;28;20186;-69
2022/07/13 11:15:53;;;;;;;5.43;3.70;;;;;;;;;;5030853;28;20185;-69
2022/07/13 11:18:21;;;;;;;9.00;4.05;;;;;;;;;;5024797;28;20653;-65
2022/07/13 11:21:14;;;;;;;7.22;3.70;;;;;;;;;;5037736;28;20236;-66
2022/07/13 11:26:54;;;;;;;5.75;3.20;;;;;;;;;;5027318;28;20232;-66
2022/07/13 11:29:26;;;;;;;6.18;2.90;;;;;;;;;;5036308;28;20237;-77
2022/07/13 11:31:57;;;;;;;4.53;2.45;;;;;;;;;;5019878;28;20198;-69
2022/07/13 11:34:23;;;;;;;4.25;2.58;;;;;;;;;;5036173;28;20724;-68
2022/07/13 11:36:49;;;;;;;3.97;2.30;;;;;;;;;;5034692;28;20254;-67
2022/07/13 11:39:25;;;;;;;6.00;2.42;;;;;;;;;;5038882;28;20193;-68
2022/07/13 11:41:51;;;;;;;4.70;2.42;;;;;;;;;;5027685;28;20196;-66
2022/07/13 11:44:21;;;;;;;3.70;2.20;;;;;;;;;;5027592;28;20186;-67
2022/07/13 11:46:47;;;;;;;3.58;2.50;;;;;;;;;;5035123;28;20186;-71
2022/07/13 11:49:12;;;;;;;4.03;2.08;;;;;;;;;;5036780;28;20208;-68
2022/07/13 11:51:37;;;;;;;2.60;2.30;;;;;;;;;;5027760;28;20213;-68
2022/07/13 11:54:08;;;;;;;3.35;2.13;;;;;;;;;;5029887;28;20194;-69
2022/07/13 11:56:33;;;;;;;2.55;1.75;;;;;;;;;;5016805;28;20191;-71
2022/07/13 11:58:58;;;;;;;5.07;2.10;;;;;;;;;;5015658;28;20186;-72
2022/07/13 12:01:25;;;;;;;4.72;2.22;;;;;;;;;;5026777;28;20177;-70
2022/07/13 12:03:51;;;;;;;5.70;2.00;;;;;;;;;;5024464;28;20202;-72
2022/07/13 12:06:18;;;;;;;2.45;2.20;;;;;;;;;;5028858;28;20236;-77
2022/07/13 12:08:45;;;;;;;3.58;2.00;;;;;;;;;;5027250;28;20568;-69
2022/07/13 12:11:17;;;;;;;3.10;2.15;;;;;;;;;;5032443;28;20189;-68
2022/07/13 12:13:44;;;;;;;3.10;1.73;;;;;;;;;;5030949;28;20240;-71
2022/07/13 12:16:12;;;;;;;4.07;1.92;;;;;;;;;;5027417;28;20232;-69
2022/07/13 12:19:04;;;;;;;2.38;1.60;;;;;;;;;;5025400;28;20188;-69
2022/07/13 12:21:32;;;;;;;4.03;1.73;;;;;;;;;;5031468;28;20169;-66
2022/07/13 12:23:58;;;;;;;3.88;2.08;;;;;;;;;;5026433;28;20186;-66
2022/07/13 12:26:25;;;;;;;1.73;1.63;;;;;;;;;;5028612;28;20200;-68
2022/07/13 12:28:51;;;;;;;3.53;2.10;;;;;;;;;;5028741;28;20294;-69
2022/07/13 12:31:20;;;;;;;7.30;2.00;;;;;;;;;;5034445;28;20205;-70
2022/07/13 12:33:48;;;;;;;4.88;1.90;;;;;;;;;;5022871;28;20262;-70
2022/07/13 12:36:15;;;;;;;2.65;1.80;;;;;;;;;;5025434;28;20559;-71
2022/07/13 12:39:01;;;;;;;2.97;1.80;;;;;;;;;;5023271;28;20204;-72
2022/07/13 12:41:36;;;;;;;8.15;2.58;;;;;;;;;;5036179;28;20184;-69
2022/07/13 12:44:04;;;;;;;3.28;1.95;;;;;;;;;;5023673;28;20265;-69
2022/07/13 12:46:54;;;;;;;6.47;2.03;;;;;;;;;;5021385;28;20185;-69
2022/07/13 12:49:25;;;;;;;2.80;2.10;;;;;;;;;;5017344;28;20243;-70
2022/07/13 12:51:52;;;;;;;3.25;2.00;;;;;;;;;;5030434;28;20180;-67
2022/07/13 12:54:40;;;;;;;3.50;1.90;;;;;;;;;;5018572;28;20178;-72
2022/07/13 12:57:13;;;;;;;2.28;1.48;;;;;;;;;;5029835;28;20181;-69
2022/07/13 12:59:39;;;;;;;6.15;1.90;;;;;;;;;;5036911;28;20188;-69
2022/07/13 13:02:05;;;;;;;3.38;1.95;;;;;;;;;;5024042;28;20196;-70
2022/07/13 13:04:31;;;;;;;6.25;1.90;;;;;;;;;;5021399;28;20200;-69
2022/07/13 13:06:56;;;;;;;2.33;1.75;;;;;;;;;;5026437;28;20677;-70
2022/07/13 13:09:22;;;;;;;1.30;1.20;;;;;;;;;;5022101;28;20212;-75
2022/07/13 13:11:48;;;;;;;2.42;1.40;;;;;;;;;;5028799;28;20678;-73
2022/07/13 13:14:16;;;;;;;1.98;1.60;;;;;;;;;;5020146;28;20792;-72
2022/07/13 13:16:42;;;;;;;1.60;1.42;;;;;;;;;;5030693;28;20609;-69
2022/07/13 13:19:08;;;;;;;1.80;1.58;;;;;;;;;;5019786;28;20175;-69
2022/07/13 13:21:34;;;;;;;3.05;1.65;;;;;;;;;;5028409;28;20185;-67
2022/07/13 13:24:01;;;;;;;5.55;2.30;;;;;;;;;;5027642;28;20553;-70
2022/07/13 13:26:27;;;;;;;4.55;1.45;;;;;;;;;;5019164;28;20236;-69
2022/07/13 13:31:36;;;;;;;3.65;1.67;;;;;;;;;;5036585;28;20582;-68
2022/07/13 13:34:01;;;;;;;2.80;1.77;;;;;;;;;;5030704;28;20194;-69
2022/07/13 13:36:27;;;;;;;4.20;1.73;;;;;;;;;;5030362;28;20266;-69
2022/07/13 13:38:52;;;;;;;3.90;1.50;;;;;;;;;;5036789;28;20181;-70
2022/07/13 13:41:17;;;;;;;2.97;1.40;;;;;;;;;;5026364;28;20189;-72
2022/07/13 13:43:43;;;;;;;3.33;1.20;;;;;;;;;;5022899;28;20182;-76
2022/07/13 13:46:08;;;;;;;1.58;1.20;;;;;;;;;;5040386;28;20181;-69
2022/07/13 13:48:34;;;;;;;2.55;1.52;;;;;;;;;;5033653;28;20213;-69
2022/07/13 13:50:59;;;;;;;1.58;1.15;;;;;;;;;;5026674;28;20495;-69
2022/07/13 13:53:25;;;;;;;3.08;1.95;;;;;;;;;;5029556;28;20658;-71
2022/07/13 13:55:51;;;;;;;1.67;1.30;;;;;;;;;;5029817;28;20180;-69
2022/07/13 13:58:17;;;;;;;2.95;1.50;;;;;;;;;;5039726;28;20244;-75
2022/07/13 14:00:42;;;;;;;3.50;1.40;;;;;;;;;;5023509;28;20606;-69
2022/07/13 14:03:08;;;;;;;2.90;1.60;;;;;;;;;;5020887;28;20188;-69
2022/07/13 14:05:33;;;;;;;3.28;2.00;;;;;;;;;;5028857;28;20182;-71
2022/07/13 14:07:59;;;;;;;5.22;1.58;;;;;;;;;;5021366;28;20212;-70
2022/07/13 14:10:24;;;;;;;1.65;1.55;;;;;;;;;;5028007;28;20186;-71
2022/07/13 14:12:51;;;;;;;2.63;1.55;;;;;;;;;;5029455;28;20832;-73
2022/07/13 14:15:16;;;;;;;3.20;1.80;;;;;;;;;;5037167;28;20575;-71
2022/07/13 14:17:42;;;;;;;4.78;2.20;;;;;;;;;;5035970;28;20209;-71
2022/07/13 14:20:07;;;;;;;2.28;1.73;;;;;;;;;;5035099;28;20192;-75
2022/07/13 14:22:34;;;;;;;3.25;1.80;;;;;;;;;;5030570;28;20182;-70
2022/07/13 14:24:59;;;;;;;2.80;1.80;;;;;;;;;;5030608;28;20650;-68
2022/07/13 14:27:25;;;;;;;2.28;1.95;;;;;;;;;;5030699;28;20276;-73
2022/07/13 14:29:52;;;;;;;2.35;1.90;;;;;;;;;;5025358;28;20229;-74
2022/07/13 14:32:18;;;;;;;4.15;2.13;;;;;;;;;;5029567;28;20351;-69
2022/07/13 14:34:45;;;;;;;4.18;1.92;;;;;;;;;;5030267;28;20209;-73
2022/07/13 14:37:11;;;;;;;4.15;1.40;;;;;;;;;;5027823;28;20273;-67
2022/07/13 14:39:37;;;;;;;1.95;1.48;;;;;;;;;;5029247;28;20186;-69
2022/07/13 14:42:03;;;;;;;2.85;1.65;;;;;;;;;;5047059;28;20379;-67
2022/07/13 14:44:28;;;;;;;3.58;1.63;;;;;;;;;;5034188;28;20206;-68
2022/07/13 14:46:53;;;;;;;4.95;2.00;;;;;;;;;;5022709;28;20907;-70
2022/07/13 14:49:20;;;;;;;4.30;1.80;;;;;;;;;;5031117;28;20590;-71
2022/07/13 14:51:46;;;;;;;3.78;1.70;;;;;;;;;;5031597;28;20634;-70
2022/07/13 14:54:11;;;;;;;3.97;2.00;;;;;;;;;;5040030;28;20185;-72